createdAt,value
2023-04-21T00:02:50.762Z,101044.73
2023-04-21T00:07:53.556Z,101044.88
2023-04-21T00:12:56.205Z,101045.95
2023-04-21T00:17:59.165Z,101035.80
2023-04-21T00:23:02.327Z,101036.70
2023-04-21T00:28:05.081Z,101033.98
2023-04-21T00:33:08.053Z,101029.08
2023-04-21T00:38:10.710Z,101027.27
2023-04-21T00:43:13.394Z,101030.25
2023-04-21T00:48:16.276Z,101028.02
2023-04-21T00:53:20.808Z,101028.84
2023-04-21T00:58:23.496Z,101028.23
2023-04-21T01:03:26.693Z,101029.39
2023-04-21T01:08:29.755Z,101028.88
2023-04-21T01:13:32.407Z,101023.70
2023-04-21T01:18:36.886Z,101024.69
2023-04-21T01:23:40.624Z,101020.20
2023-04-21T01:28:43.329Z,101017.86
2023-04-21T01:33:46.082Z,101022.84
2023-04-21T01:38:48.885Z,101017.88
2023-04-21T01:43:51.601Z,101020.30
2023-04-21T01:48:54.282Z,101017.55
2023-04-21T01:53:56.959Z,101018.48
2023-04-21T01:58:59.615Z,101015.30
2023-04-21T02:04:03.848Z,101008.96
2023-04-21T02:09:06.936Z,101010.10
2023-04-21T02:14:09.697Z,101006.25
2023-04-21T02:19:12.480Z,101006.64
2023-04-21T02:24:15.169Z,101013.67
2023-04-21T02:29:18.057Z,101005.66
2023-04-21T02:34:21.080Z,101004.90
2023-04-21T02:39:23.750Z,101005.33
2023-04-21T02:44:26.453Z,101005.15
2023-04-21T02:49:29.199Z,101010.02
2023-04-21T02:54:31.902Z,101006.42
2023-04-21T02:59:34.554Z,101005.39
2023-04-21T03:04:37.840Z,101002.80
2023-04-21T03:09:41.284Z,101003.46
2023-04-21T03:14:43.990Z,101001.69
2023-04-21T03:19:46.707Z,101000.08
2023-04-21T03:24:49.363Z,100998.29
2023-04-21T03:29:52.032Z,100991.84
2023-04-21T03:34:54.768Z,100991.98
2023-04-21T03:39:57.562Z,100994.77
2023-04-21T03:45:07.940Z,100989.46
2023-04-21T03:50:10.654Z,100993.33
2023-04-21T03:55:13.326Z,100993.88
2023-04-21T04:00:16.442Z,100998.42
2023-04-21T04:05:19.244Z,100998.52
2023-04-21T04:10:21.988Z,101001.11
2023-04-21T04:15:24.656Z,101002.67
2023-04-21T04:20:27.674Z,101005.50
2023-04-21T04:25:31.081Z,101005.57
2023-04-21T04:30:34.218Z,101009.23
2023-04-21T04:35:36.915Z,101006.89
2023-04-21T04:40:39.645Z,101004.50
2023-04-21T04:45:43.955Z,101005.66
2023-04-21T04:50:46.693Z,101003.93
2023-04-21T04:55:49.355Z,101001.31
2023-04-21T05:00:52.030Z,101002.16
2023-04-21T05:05:54.765Z,101004.29
2023-04-21T05:10:57.458Z,101010.77
2023-04-21T05:16:02.248Z,101008.36
2023-04-21T05:21:05.163Z,101010.02
2023-04-21T05:26:07.838Z,101006.73
2023-04-21T05:31:10.530Z,101003.61
2023-04-21T05:36:13.278Z,101001.34
2023-04-21T05:41:16.335Z,101002.38
2023-04-21T05:46:19.263Z,101004.44
2023-04-21T05:51:22.063Z,101007.89
2023-04-21T05:56:24.719Z,101002.34
2023-04-21T06:01:27.405Z,101009.53
2023-04-21T06:06:30.593Z,101006.84
2023-04-21T06:11:33.558Z,101003.98
2023-04-21T06:16:36.571Z,101000.94
2023-04-21T06:21:39.738Z,100995.63
2023-04-21T06:26:42.937Z,100989.77
2023-04-21T06:31:46.998Z,100985.60
2023-04-21T06:36:50.146Z,100980.32
2023-04-21T06:41:53.196Z,100986.33
2023-04-21T06:46:57.182Z,100990.69
2023-04-21T06:52:02.527Z,100985.91
2023-04-21T06:57:08.105Z,100986.45
2023-04-21T07:02:10.880Z,100987.91
2023-04-21T07:07:14.664Z,100984.48
2023-04-21T07:12:18.012Z,100983.79
2023-04-21T07:17:21.132Z,100980.61
2023-04-21T07:22:24.061Z,100977.55
2023-04-21T07:27:27.023Z,100973.92
2023-04-21T07:32:30.074Z,100971.59
2023-04-21T07:37:33.223Z,100971.61
2023-04-21T07:42:39.352Z,100969.64
2023-04-21T07:47:42.260Z,100967.67
2023-04-21T07:52:45.211Z,100965.09
2023-04-21T07:57:48.982Z,100966.78
2023-04-21T08:02:51.842Z,100960.30
2023-04-21T08:07:54.559Z,100958.66
2023-04-21T08:12:57.377Z,100947.60
2023-04-21T08:18:00.223Z,100947.33
2023-04-21T08:23:03.211Z,100937.21
2023-04-21T08:28:06.365Z,100935.58
2023-04-21T08:33:14.168Z,100935.23
2023-04-21T08:38:17.841Z,100931.60
2023-04-21T08:43:22.595Z,100925.08
2023-04-21T08:48:29.942Z,100922.52
2023-04-21T08:53:32.739Z,100922.55
2023-04-21T08:58:36.168Z,100918.04
2023-04-21T09:03:39.242Z,100918.14
2023-04-21T09:08:44.172Z,100911.56
2023-04-21T09:13:47.339Z,100902.69
2023-04-21T09:18:50.717Z,100888.91
2023-04-21T09:23:55.663Z,100880.25
2023-04-21T09:28:58.503Z,100888.06
2023-04-21T09:34:01.995Z,100889.07
2023-04-21T09:44:21.575Z,100880.36
2023-04-21T09:49:29.434Z,100872.98
2023-04-21T09:54:34.466Z,100869.06
2023-04-21T09:59:38.821Z,100859.89
2023-04-21T10:04:43.878Z,100853.31
2023-04-21T10:09:51.130Z,100853.28
2023-04-21T10:14:55.714Z,100849.48
2023-04-21T10:19:58.816Z,100843.69
2023-04-21T10:25:04.746Z,100835.01
2023-04-21T10:30:23.459Z,100830.09
2023-04-21T10:36:02.132Z,100824.59
2023-04-21T10:41:31.216Z,100827.65
2023-04-21T10:46:48.699Z,100828.71
2023-04-21T10:52:03.456Z,100822.73
2023-04-21T10:57:11.600Z,100820.38
2023-04-21T11:02:16.610Z,100818.27
2023-04-21T11:07:22.928Z,100812.81
2023-04-21T11:12:32.545Z,100816.80
2023-04-21T11:17:38.953Z,100809.45
2023-04-21T11:22:41.828Z,100801.02
2023-04-21T11:27:53.944Z,100798.10
2023-04-21T11:32:56.751Z,100793.38
2023-04-21T11:38:05.131Z,100780.69
2023-04-21T11:43:08.287Z,100783.48
2023-04-21T11:48:18.087Z,100774.02
2023-04-21T11:53:21.837Z,100767.31
2023-04-21T11:58:24.725Z,100758.89
2023-04-21T12:03:29.466Z,100750.69
2023-04-21T12:08:32.446Z,100741.57
2023-04-21T12:13:36.176Z,100739.65
2023-04-21T12:18:39.090Z,100730.73
2023-04-21T12:23:41.889Z,100721.47
2023-04-21T12:28:44.575Z,100721.99
2023-04-21T12:33:47.839Z,100711.84
2023-04-21T12:38:50.710Z,100706.84
2023-04-21T12:43:53.986Z,100703.52
2023-04-21T12:48:57.088Z,100698.48
2023-04-21T12:53:59.900Z,100692.40
2023-04-21T12:59:02.744Z,100690.50
2023-04-21T13:04:06.192Z,100682.31
2023-04-21T13:09:09.354Z,100683.00
2023-04-21T13:14:12.221Z,100680.31
2023-04-21T13:19:14.918Z,100674.04
2023-04-21T13:24:17.684Z,100669.48
2023-04-21T13:29:20.522Z,100662.27
2023-04-21T13:34:23.308Z,100655.70
2023-04-21T13:39:26.505Z,100652.95
2023-04-21T13:44:29.243Z,100647.73
2023-04-21T13:49:32.877Z,100643.81
2023-04-21T13:54:35.914Z,100634.31
2023-04-21T13:59:39.004Z,100625.91
2023-04-21T14:04:42.186Z,100629.40
2023-04-21T14:09:50.042Z,100620.85
2023-04-21T14:14:52.721Z,100609.95
2023-04-21T14:19:55.552Z,100607.70
2023-04-21T14:24:58.294Z,100603.60
2023-04-21T14:30:01.125Z,100589.75
2023-04-21T14:35:05.002Z,100581.23
2023-04-21T14:40:09.530Z,100580.11
2023-04-21T14:45:12.394Z,100569.23
2023-04-21T14:50:15.114Z,100564.36
2023-04-21T14:55:17.992Z,100567.20
2023-04-21T15:00:21.036Z,100557.27
2023-04-21T15:05:23.800Z,100558.51
2023-04-21T15:10:26.728Z,100553.27
2023-04-21T15:15:29.521Z,100551.27
2023-04-21T15:20:43.968Z,100544.15
2023-04-21T15:25:48.173Z,100544.77
2023-04-21T15:30:50.885Z,100543.36
2023-04-21T15:35:53.610Z,100541.90
2023-04-21T15:41:01.184Z,100538.79
2023-04-21T15:46:12.934Z,100534.30
2023-04-21T15:51:16.086Z,100526.55
2023-04-21T15:56:18.790Z,100526.08
2023-04-21T16:01:22.469Z,100519.40
2023-04-21T16:06:25.445Z,100515.82
2023-04-21T16:11:29.436Z,100515.45
2023-04-21T16:16:32.289Z,100520.59
2023-04-21T16:21:36.550Z,100516.31
2023-04-21T16:26:39.305Z,100511.88
2023-04-21T16:31:41.978Z,100513.01
2023-04-21T16:36:44.996Z,100514.63
2023-04-21T16:41:47.899Z,100516.77
2023-04-21T16:46:50.766Z,100515.88
2023-04-21T16:51:53.607Z,100513.76
2023-04-21T16:56:57.595Z,100514.13
2023-04-21T17:02:00.285Z,100508.30
2023-04-21T17:07:03.173Z,100510.14
2023-04-21T17:12:06.327Z,100509.61
2023-04-21T17:17:09.261Z,100515.78
2023-04-21T17:22:12.309Z,100512.80
2023-04-21T17:27:15.045Z,100517.23
2023-04-21T17:32:18.057Z,100518.20
2023-04-21T17:37:21.159Z,100528.21
2023-04-21T17:42:23.934Z,100526.90
2023-04-21T17:47:26.687Z,100525.66
2023-04-21T17:52:29.356Z,100524.45
2023-04-21T17:57:32.101Z,100532.84
2023-04-21T18:02:34.898Z,100531.99
2023-04-21T18:07:37.804Z,100537.13
2023-04-21T18:12:40.800Z,100538.08
2023-04-21T18:17:43.506Z,100540.73
2023-04-21T18:22:46.594Z,100543.34
2023-04-21T18:27:49.304Z,100544.58
2023-04-21T18:32:52.166Z,100546.42
2023-04-21T18:37:54.974Z,100548.36
2023-04-21T18:42:58.151Z,100546.58
2023-04-21T18:48:01.111Z,100548.86
2023-04-21T18:53:03.940Z,100543.99
2023-04-21T18:58:07.085Z,100541.59
2023-04-21T19:03:11.151Z,100540.73
2023-04-21T19:08:13.987Z,100543.17
2023-04-21T19:13:17.205Z,100544.73
2023-04-21T19:18:19.889Z,100543.74
2023-04-21T19:23:22.595Z,100547.09
2023-04-21T19:28:25.402Z,100539.81
2023-04-21T19:33:28.107Z,100537.67
2023-04-21T19:38:31.127Z,100538.23
2023-04-21T19:43:33.826Z,100537.55
2023-04-21T19:48:37.120Z,100537.91
2023-04-21T19:53:39.842Z,100533.63
2023-04-21T19:58:42.608Z,100532.98
2023-04-21T20:03:46.709Z,100528.42
2023-04-21T20:08:49.485Z,100528.23
2023-04-21T20:13:52.199Z,100526.39
2023-04-21T20:18:57.739Z,100520.66
2023-04-21T20:24:00.943Z,100519.36
2023-04-21T20:29:04.130Z,100529.00
2023-04-21T20:34:07.508Z,100523.95
2023-04-21T20:39:10.484Z,100526.92
2023-04-21T20:44:13.208Z,100528.70
2023-04-21T20:49:16.154Z,100535.22
2023-04-21T20:54:18.840Z,100538.81
2023-04-21T20:59:21.599Z,100527.52
2023-04-21T21:04:24.514Z,100525.98
2023-04-21T21:09:27.551Z,100525.80
2023-04-21T21:14:30.294Z,100529.31
2023-04-21T21:19:32.986Z,100533.61
2023-04-21T21:24:35.670Z,100534.52
2023-04-21T21:29:38.767Z,100537.73
2023-04-21T21:34:41.697Z,100536.48
2023-04-21T21:39:44.407Z,100536.77
2023-04-21T21:44:47.082Z,100538.19
2023-04-21T21:49:54.650Z,100532.61
2023-04-21T21:54:58.477Z,100528.95
2023-04-21T22:00:02.032Z,100526.77
2023-04-21T22:05:05.919Z,100525.99
2023-04-21T22:10:10.051Z,100527.61
2023-04-21T22:15:12.770Z,100524.14
2023-04-21T22:20:15.583Z,100527.97
2023-04-21T22:25:18.597Z,100527.05
2023-04-21T22:30:21.484Z,100533.65
2023-04-21T22:35:24.172Z,100531.66
2023-04-21T22:40:27.016Z,100526.36
2023-04-21T22:45:29.726Z,100524.05
2023-04-21T22:50:32.393Z,100521.41
2023-04-21T22:55:35.584Z,100518.42
2023-04-21T23:00:38.326Z,100520.71
2023-04-21T23:05:41.542Z,100511.41
2023-04-21T23:10:44.256Z,100506.18
2023-04-21T23:15:46.923Z,100500.58
2023-04-21T23:20:49.600Z,100506.64
2023-04-21T23:25:52.265Z,100510.48
2023-04-21T23:30:55.140Z,100505.34
2023-04-21T23:35:57.864Z,100503.56
2023-04-21T23:41:00.904Z,100503.09
2023-04-21T23:46:04.179Z,100501.80
2023-04-21T23:51:07.144Z,100493.85
2023-04-21T23:56:09.850Z,100494.02
